createdAt,value
2023-03-16T00:00:17.717Z,73.86
2023-03-16T00:01:21.637Z,73.94
2023-03-16T00:02:25.533Z,73.97
2023-03-16T00:04:01.055Z,73.94
2023-03-16T00:05:04.136Z,73.99
2023-03-16T00:06:07.020Z,73.85
2023-03-16T00:07:44.000Z,74.11
2023-03-16T00:08:47.273Z,73.95
2023-03-16T00:09:50.301Z,73.95
2023-03-16T00:11:25.149Z,74.05
2023-03-16T00:12:28.177Z,74.13
2023-03-16T00:13:30.932Z,74.11
2023-03-16T00:15:05.716Z,74.15
2023-03-16T00:16:08.981Z,74.34
2023-03-16T00:17:12.450Z,74.17
2023-03-16T00:18:47.571Z,74.15
2023-03-16T00:19:50.540Z,74.11
2023-03-16T00:20:53.743Z,74.05
2023-03-16T00:22:28.834Z,74.02
2023-03-16T00:23:32.030Z,74.17
2023-03-16T00:24:35.059Z,74.35
2023-03-16T00:26:09.802Z,74.36
2023-03-16T00:27:12.858Z,74.35
2023-03-16T00:28:15.858Z,74.50
2023-03-16T00:29:50.637Z,74.45
2023-03-16T00:30:54.240Z,74.39
2023-03-16T00:31:57.346Z,74.53
2023-03-16T00:33:32.572Z,74.38
2023-03-16T00:34:35.656Z,74.27
2023-03-16T00:35:38.815Z,74.34
2023-03-16T00:37:15.042Z,74.39
2023-03-16T00:38:18.504Z,74.48
2023-03-16T00:39:21.442Z,74.50
2023-03-16T00:40:56.384Z,74.58
2023-03-16T00:41:59.302Z,74.50
2023-03-16T00:43:02.068Z,74.31
2023-03-16T00:44:37.430Z,74.51
2023-03-16T00:45:40.414Z,74.36
2023-03-16T00:46:43.479Z,74.45
2023-03-16T00:48:18.153Z,74.24
2023-03-16T00:49:20.991Z,74.32
2023-03-16T00:50:23.901Z,74.35
2023-03-16T00:51:59.294Z,74.25
2023-03-16T00:53:02.368Z,74.10
2023-03-16T00:54:05.471Z,74.31
2023-03-16T00:55:40.518Z,74.00
2023-03-16T00:56:43.964Z,74.13
2023-03-16T00:57:46.979Z,74.07
2023-03-16T00:59:21.851Z,74.17
2023-03-16T01:00:18.576Z,73.95
2023-03-16T01:01:21.925Z,73.90
2023-03-16T01:02:25.407Z,73.64
2023-03-16T01:04:00.540Z,73.77
2023-03-16T01:05:03.800Z,73.85
2023-03-16T01:06:06.769Z,73.74
2023-03-16T01:07:41.816Z,73.82
2023-03-16T01:08:45.059Z,73.98
2023-03-16T01:09:48.008Z,73.96
2023-03-16T01:11:22.852Z,73.97
2023-03-16T01:12:25.890Z,74.25
2023-03-16T01:13:29.048Z,74.31
2023-03-16T01:15:03.801Z,74.07
2023-03-16T01:16:06.836Z,74.16
2023-03-16T01:17:10.205Z,74.07
2023-03-16T01:18:45.256Z,74.09
2023-03-16T01:19:48.423Z,73.93
2023-03-16T01:20:51.424Z,74.15
2023-03-16T01:22:26.360Z,74.10
2023-03-16T01:23:29.445Z,74.04
2023-03-16T01:24:32.374Z,74.27
2023-03-16T01:26:07.573Z,74.29
2023-03-16T01:27:10.650Z,74.30
2023-03-16T01:28:13.572Z,74.30
2023-03-16T01:29:48.749Z,74.40
2023-03-16T01:30:52.093Z,74.57
2023-03-16T01:31:55.315Z,74.57
2023-03-16T01:33:30.357Z,74.27
2023-03-16T01:34:33.227Z,74.49
2023-03-16T01:35:36.376Z,74.66
2023-03-16T01:37:11.541Z,74.61
2023-03-16T01:38:14.431Z,74.62
2023-03-16T01:39:17.555Z,74.57
2023-03-16T01:40:52.423Z,74.17
2023-03-16T01:41:55.308Z,74.32
2023-03-16T01:42:58.598Z,74.50
2023-03-16T01:44:33.819Z,74.50
2023-03-16T01:45:37.417Z,74.50
2023-03-16T01:46:41.265Z,74.50
2023-03-16T01:48:16.396Z,74.70
2023-03-16T01:49:22.339Z,74.70
2023-03-16T01:50:25.944Z,74.70
2023-03-16T01:52:01.423Z,74.29
2023-03-16T01:53:04.320Z,74.37
2023-03-16T01:54:07.638Z,74.31
2023-03-16T01:55:42.609Z,74.46
2023-03-16T01:56:45.624Z,74.44
2023-03-16T01:57:48.997Z,74.51
2023-03-16T01:59:24.440Z,74.50
2023-03-16T02:00:18.130Z,74.53
2023-03-16T02:01:22.331Z,74.43
2023-03-16T02:02:26.125Z,74.37
2023-03-16T02:04:01.765Z,74.25
2023-03-16T02:05:05.989Z,74.58
2023-03-16T02:06:09.636Z,74.49
2023-03-16T02:07:44.745Z,74.67
2023-03-16T02:08:47.723Z,74.76
2023-03-16T02:09:50.775Z,74.61
2023-03-16T02:11:25.845Z,74.48
2023-03-16T02:12:29.146Z,74.50
2023-03-16T02:13:32.193Z,74.53
2023-03-16T02:15:07.429Z,74.68
2023-03-16T02:16:10.743Z,74.87
2023-03-16T02:17:14.293Z,74.91
2023-03-16T02:18:49.763Z,75.10
2023-03-16T02:19:52.971Z,75.16
2023-03-16T02:20:56.093Z,75.01
2023-03-16T02:22:31.270Z,75.05
2023-03-16T02:23:34.613Z,74.97
2023-03-16T02:24:37.816Z,75.09
2023-03-16T02:26:13.170Z,75.07
2023-03-16T02:27:16.381Z,74.87
2023-03-16T02:28:19.448Z,74.92
2023-03-16T02:29:54.609Z,74.97
2023-03-16T02:30:57.679Z,75.02
2023-03-16T02:32:01.124Z,75.37
2023-03-16T02:33:36.561Z,75.28
2023-03-16T02:34:39.857Z,75.32
2023-03-16T02:35:43.470Z,75.31
2023-03-16T02:37:19.216Z,75.47
2023-03-16T02:38:22.274Z,75.73
2023-03-16T02:39:25.529Z,75.73
2023-03-16T02:41:00.568Z,75.90
2023-03-16T02:42:03.807Z,75.87
2023-03-16T02:43:07.084Z,76.03
2023-03-16T02:44:42.297Z,75.89
2023-03-16T02:45:45.293Z,76.01
2023-03-16T02:46:48.863Z,76.09
2023-03-16T02:48:24.067Z,76.10
2023-03-16T02:49:27.146Z,76.21
2023-03-16T02:50:30.689Z,76.06
2023-03-16T02:52:05.754Z,76.14
2023-03-16T02:53:08.812Z,76.08
2023-03-16T02:54:12.126Z,76.01
2023-03-16T02:55:47.385Z,76.02
2023-03-16T02:56:50.445Z,76.14
2023-03-16T02:57:53.648Z,76.17
2023-03-16T02:59:28.702Z,76.19
2023-03-16T03:00:17.684Z,76.08
2023-03-16T03:01:21.234Z,76.15
2023-03-16T03:02:24.379Z,76.02
2023-03-16T03:03:59.678Z,76.02
2023-03-16T03:05:02.798Z,76.01
2023-03-16T03:06:06.083Z,76.15
2023-03-16T03:07:41.539Z,76.11
2023-03-16T03:08:45.025Z,76.08
2023-03-16T03:09:48.216Z,75.93
2023-03-16T03:11:23.553Z,76.09
2023-03-16T03:12:27.036Z,76.04
2023-03-16T03:13:30.358Z,76.01
2023-03-16T03:15:05.265Z,76.02
2023-03-16T03:16:08.650Z,76.14
2023-03-16T03:17:12.226Z,76.21
2023-03-16T03:18:47.363Z,76.28
2023-03-16T03:19:50.551Z,76.39
2023-03-16T03:20:53.688Z,76.41
2023-03-16T03:22:28.865Z,76.52
2023-03-16T03:23:32.152Z,76.42
2023-03-16T03:24:35.469Z,76.35
2023-03-16T03:26:10.859Z,76.41
2023-03-16T03:27:14.093Z,76.45
2023-03-16T03:28:17.822Z,76.53
2023-03-16T03:29:53.159Z,76.56
2023-03-16T03:30:56.179Z,76.45
2023-03-16T03:31:59.308Z,76.44
2023-03-16T03:33:34.723Z,76.63
2023-03-16T03:34:38.010Z,76.59
2023-03-16T03:35:41.419Z,76.55
2023-03-16T03:37:16.636Z,76.38
2023-03-16T03:38:19.905Z,76.28
2023-03-16T03:39:23.084Z,76.20
2023-03-16T03:40:58.418Z,76.33
2023-03-16T03:42:01.397Z,76.35
2023-03-16T03:43:04.849Z,76.64
2023-03-16T03:44:40.350Z,76.67
2023-03-16T03:45:43.982Z,76.78
2023-03-16T03:46:48.288Z,76.59
2023-03-16T03:48:23.860Z,76.77
2023-03-16T03:49:27.298Z,76.78
2023-03-16T03:50:30.613Z,76.80
2023-03-16T03:52:05.508Z,76.96
2023-03-16T03:53:08.510Z,76.98
2023-03-16T03:54:11.403Z,77.13
2023-03-16T03:55:46.607Z,77.29
2023-03-16T03:56:49.872Z,77.09
2023-03-16T03:57:53.306Z,77.11
2023-03-16T03:59:28.303Z,77.03
2023-03-16T04:00:18.379Z,77.08
2023-03-16T04:01:21.994Z,77.25
2023-03-16T04:02:25.794Z,77.23
2023-03-16T04:04:02.660Z,77.10
2023-03-16T04:05:05.814Z,77.33
2023-03-16T04:06:08.986Z,77.20
2023-03-16T04:07:43.996Z,77.43
2023-03-16T04:08:47.090Z,77.64
2023-03-16T04:09:50.107Z,77.63
2023-03-16T04:11:25.219Z,77.42
2023-03-16T04:12:28.175Z,77.57
2023-03-16T04:13:31.227Z,77.33
2023-03-16T04:15:06.698Z,77.36
2023-03-16T04:16:09.870Z,77.42
2023-03-16T04:17:13.610Z,77.65
2023-03-16T04:18:49.073Z,77.65
2023-03-16T04:19:52.427Z,77.55
2023-03-16T04:20:55.455Z,77.54
2023-03-16T04:22:30.255Z,77.57
2023-03-16T04:23:33.510Z,77.92
2023-03-16T04:24:36.883Z,77.88
2023-03-16T04:26:11.868Z,77.56
2023-03-16T04:27:15.060Z,77.80
2023-03-16T04:28:18.200Z,77.60
2023-03-16T04:29:53.301Z,77.47
2023-03-16T04:30:56.554Z,77.54
2023-03-16T04:32:00.445Z,77.58
2023-03-16T04:33:36.424Z,77.93
2023-03-16T04:34:39.709Z,77.84
2023-03-16T04:35:43.087Z,77.84
2023-03-16T04:37:18.783Z,77.96
2023-03-16T04:38:21.813Z,77.89
2023-03-16T04:39:24.679Z,77.87
2023-03-16T04:41:02.728Z,77.86
2023-03-16T04:42:05.744Z,77.92
2023-03-16T04:43:08.749Z,78.26
2023-03-16T04:44:43.880Z,78.30
2023-03-16T04:45:46.923Z,78.26
2023-03-16T04:46:50.658Z,78.30
2023-03-16T04:48:26.060Z,78.29
2023-03-16T04:49:29.664Z,78.28
2023-03-16T04:50:33.134Z,78.41
2023-03-16T04:52:08.655Z,78.53
2023-03-16T04:53:11.648Z,78.45
2023-03-16T04:54:14.925Z,78.61
2023-03-16T04:55:50.038Z,78.62
2023-03-16T04:56:53.054Z,78.61
2023-03-16T04:57:56.297Z,78.73
2023-03-16T04:59:31.362Z,78.83
2023-03-16T05:00:17.703Z,78.89
2023-03-16T05:01:21.245Z,78.99
2023-03-16T05:02:24.879Z,79.06
2023-03-16T05:04:00.186Z,78.81
2023-03-16T05:05:47.094Z,78.75
2023-03-16T05:06:50.389Z,78.85
2023-03-16T05:07:53.330Z,78.99
2023-03-16T05:09:28.307Z,79.08
2023-03-16T05:10:32.002Z,79.04
2023-03-16T05:11:34.866Z,79.00
2023-03-16T05:13:10.210Z,78.86
2023-03-16T05:14:13.275Z,78.93
2023-03-16T05:15:16.863Z,79.10
2023-03-16T05:16:52.592Z,79.04
2023-03-16T05:17:55.691Z,79.06
2023-03-16T05:18:58.628Z,79.19
2023-03-16T05:20:34.198Z,79.12
2023-03-16T05:21:37.082Z,78.98
2023-03-16T05:22:39.977Z,79.09
2023-03-16T05:24:15.126Z,79.00
2023-03-16T05:25:18.243Z,78.96
2023-03-16T05:26:21.270Z,79.20
2023-03-16T05:27:55.976Z,79.15
2023-03-16T05:28:58.955Z,79.13
2023-03-16T05:30:02.123Z,79.09
2023-03-16T05:31:37.653Z,79.09
2023-03-16T05:32:40.636Z,79.22
2023-03-16T05:33:44.305Z,79.33
2023-03-16T05:35:19.151Z,79.25
2023-03-16T05:36:22.682Z,79.27
2023-03-16T05:37:25.623Z,79.14
2023-03-16T05:39:00.790Z,79.22
2023-03-16T05:40:03.857Z,79.20
2023-03-16T05:41:09.538Z,79.17
2023-03-16T05:42:44.980Z,79.40
2023-03-16T05:43:48.466Z,79.40
2023-03-16T05:44:51.447Z,79.45
2023-03-16T05:46:26.905Z,79.37
2023-03-16T05:47:30.147Z,79.41
2023-03-16T05:48:33.182Z,79.39
2023-03-16T05:50:08.443Z,79.34
2023-03-16T05:51:11.558Z,79.39
2023-03-16T05:52:14.569Z,79.46
2023-03-16T05:53:49.691Z,79.50
2023-03-16T05:54:52.919Z,79.58
2023-03-16T05:55:56.120Z,79.56
2023-03-16T05:57:30.808Z,79.48
2023-03-16T05:58:34.120Z,79.48
2023-03-16T05:59:37.349Z,79.47
2023-03-16T06:00:17.432Z,79.47
2023-03-16T06:01:20.838Z,79.43
2023-03-16T06:02:23.906Z,79.53
2023-03-16T06:03:59.738Z,79.41
2023-03-16T06:05:03.106Z,79.39
2023-03-16T06:06:06.264Z,79.33
2023-03-16T06:07:41.657Z,79.36
2023-03-16T06:08:44.628Z,79.37
2023-03-16T06:09:47.591Z,79.23
2023-03-16T06:11:22.559Z,79.53
2023-03-16T06:12:25.526Z,79.43
2023-03-16T06:13:28.613Z,79.54
2023-03-16T06:15:03.917Z,79.46
2023-03-16T06:16:07.068Z,79.34
2023-03-16T06:17:10.460Z,79.43
2023-03-16T06:18:45.488Z,79.43
2023-03-16T06:19:51.435Z,79.40
2023-03-16T06:20:54.489Z,79.49
2023-03-16T06:22:29.862Z,79.61
2023-03-16T06:23:33.021Z,79.56
2023-03-16T06:24:36.066Z,79.56
2023-03-16T06:26:11.135Z,79.54
2023-03-16T06:27:14.214Z,79.51
2023-03-16T06:28:17.326Z,79.32
2023-03-16T06:29:52.430Z,79.31
2023-03-16T06:30:55.382Z,79.15
2023-03-16T06:31:58.810Z,79.31
2023-03-16T06:33:34.165Z,79.22
2023-03-16T06:34:38.340Z,79.04
2023-03-16T06:35:41.589Z,79.12
2023-03-16T06:37:17.307Z,79.25
2023-03-16T06:38:20.642Z,79.16
2023-03-16T06:39:23.851Z,79.24
2023-03-16T06:40:58.841Z,79.24
2023-03-16T06:42:02.068Z,79.27
2023-03-16T06:43:04.970Z,79.13
2023-03-16T06:44:39.954Z,79.30
2023-03-16T06:45:43.314Z,79.55
2023-03-16T06:46:46.773Z,79.53
2023-03-16T06:48:21.651Z,79.36
2023-03-16T06:49:24.587Z,79.22
2023-03-16T06:50:27.870Z,79.31
2023-03-16T06:52:03.148Z,79.20
2023-03-16T06:53:06.002Z,79.18
2023-03-16T06:54:09.064Z,79.16
2023-03-16T06:55:43.988Z,79.11
2023-03-16T06:56:47.103Z,79.42
2023-03-16T06:57:50.115Z,79.18
2023-03-16T06:59:25.211Z,78.88
2023-03-16T07:00:17.366Z,78.88
2023-03-16T07:01:20.849Z,79.08
2023-03-16T07:02:24.373Z,79.12
2023-03-16T07:03:59.820Z,79.12
2023-03-16T07:05:03.352Z,79.07
2023-03-16T07:06:06.476Z,79.15
2023-03-16T07:07:41.477Z,79.12
2023-03-16T07:08:44.479Z,79.06
2023-03-16T07:09:47.727Z,79.02
2023-03-16T07:11:23.195Z,79.12
2023-03-16T07:12:26.195Z,79.28
2023-03-16T07:13:29.504Z,79.39
2023-03-16T07:15:04.728Z,79.07
2023-03-16T07:16:07.705Z,79.26
2023-03-16T07:17:11.465Z,79.27
2023-03-16T07:18:46.460Z,79.02
2023-03-16T07:19:49.495Z,79.13
2023-03-16T07:20:52.691Z,79.36
2023-03-16T07:22:27.510Z,79.31
2023-03-16T07:23:30.444Z,79.26
2023-03-16T07:24:33.536Z,79.16
2023-03-16T07:26:08.597Z,79.32
2023-03-16T07:27:12.657Z,79.28
2023-03-16T07:28:15.810Z,79.36
2023-03-16T07:29:51.575Z,79.44
2023-03-16T07:31:09.236Z,79.55
2023-03-16T07:32:12.990Z,79.48
2023-03-16T07:33:48.754Z,79.36
2023-03-16T07:34:51.815Z,79.46
2023-03-16T07:35:56.709Z,79.75
2023-03-16T07:37:32.218Z,79.51
2023-03-16T07:38:35.142Z,79.77
2023-03-16T07:39:38.251Z,79.70
2023-03-16T07:41:13.701Z,79.60
2023-03-16T07:42:19.026Z,79.76
2023-03-16T07:43:21.983Z,79.87
2023-03-16T07:44:57.652Z,80.03
2023-03-16T07:46:01.010Z,80.08
2023-03-16T07:47:04.590Z,80.28
2023-03-16T07:48:43.130Z,80.31
2023-03-16T07:49:46.136Z,80.35
2023-03-16T07:50:49.157Z,80.16
2023-03-16T07:52:24.020Z,80.32
2023-03-16T07:53:29.425Z,80.51
2023-03-16T07:54:32.544Z,80.42
2023-03-16T07:56:07.326Z,80.74
2023-03-16T07:57:26.614Z,80.42
2023-03-16T07:58:29.578Z,80.36
2023-03-16T08:00:18.218Z,80.69
2023-03-16T08:01:21.990Z,80.59
2023-03-16T08:02:25.673Z,80.51
2023-03-16T08:04:01.854Z,80.59
2023-03-16T08:05:05.068Z,80.47
2023-03-16T08:06:08.612Z,80.50
2023-03-16T08:07:43.505Z,80.78
2023-03-16T08:08:46.523Z,80.60
2023-03-16T08:09:49.525Z,80.06
2023-03-16T08:11:24.886Z,79.82
2023-03-16T08:12:28.216Z,80.23
2023-03-16T08:13:31.592Z,80.51
2023-03-16T08:15:06.680Z,80.34
2023-03-16T08:16:09.738Z,79.78
2023-03-16T08:17:14.226Z,80.02
2023-03-16T08:18:49.104Z,80.44
2023-03-16T08:19:52.128Z,80.37
2023-03-16T08:20:55.666Z,80.46
2023-03-16T08:22:49.433Z,80.53
2023-03-16T08:23:52.688Z,80.24
2023-03-16T08:24:55.794Z,80.62
2023-03-16T08:26:30.936Z,80.89
2023-03-16T08:27:37.105Z,80.96
2023-03-16T08:28:40.637Z,81.05
2023-03-16T08:30:16.395Z,81.28
2023-03-16T08:31:20.292Z,81.68
2023-03-16T08:32:23.705Z,81.59
2023-03-16T08:34:00.839Z,82.11
2023-03-16T08:35:03.924Z,82.30
2023-03-16T08:36:07.123Z,82.38
2023-03-16T08:37:41.850Z,82.79
2023-03-16T08:38:53.528Z,82.87
2023-03-16T08:40:05.141Z,82.70
2023-03-16T08:41:40.997Z,82.69
2023-03-16T08:42:43.974Z,82.75
2023-03-16T08:43:46.940Z,82.68
2023-03-16T08:45:22.279Z,82.74
2023-03-16T08:46:25.241Z,83.10
2023-03-16T08:47:29.084Z,82.84
2023-03-16T08:49:04.086Z,83.07
2023-03-16T08:50:07.165Z,83.15
2023-03-16T08:51:10.906Z,83.74
2023-03-16T08:52:45.680Z,84.02
2023-03-16T08:53:48.768Z,84.25
2023-03-16T08:55:07.970Z,84.25
2023-03-16T08:56:43.293Z,84.25
2023-03-16T08:57:46.565Z,84.66
2023-03-16T08:58:50.590Z,84.76
2023-03-16T09:00:17.771Z,84.77
2023-03-16T09:01:21.294Z,84.98
2023-03-16T09:02:25.051Z,84.97
2023-03-16T09:04:00.886Z,85.09
2023-03-16T09:05:04.354Z,84.79
2023-03-16T09:06:07.673Z,84.83
2023-03-16T09:08:00.264Z,84.76
2023-03-16T09:09:03.840Z,84.76
2023-03-16T09:10:07.241Z,84.76
2023-03-16T09:11:43.111Z,84.60
2023-03-16T09:12:46.381Z,84.30
2023-03-16T09:13:51.902Z,84.09
2023-03-16T09:15:28.069Z,83.82
2023-03-16T09:16:31.687Z,83.82
2023-03-16T09:17:35.188Z,83.82
2023-03-16T09:19:10.663Z,83.60
2023-03-16T09:20:36.215Z,82.95
2023-03-16T09:21:40.807Z,83.13
2023-03-16T09:23:16.907Z,83.48
2023-03-16T09:24:20.133Z,83.12
2023-03-16T09:25:23.362Z,83.21
2023-03-16T09:26:59.685Z,82.85
2023-03-16T09:28:03.894Z,82.84
2023-03-16T09:29:08.402Z,82.99
2023-03-16T09:30:43.566Z,82.34
2023-03-16T09:31:47.067Z,82.22
2023-03-16T09:32:50.513Z,81.73
2023-03-16T09:34:26.256Z,81.93
2023-03-16T09:35:31.560Z,81.92
2023-03-16T09:36:35.907Z,82.14
2023-03-16T09:38:25.673Z,81.87
2023-03-16T09:39:28.859Z,81.66
2023-03-16T09:40:32.509Z,81.65
2023-03-16T09:42:10.943Z,81.36
2023-03-16T09:43:14.208Z,81.25
2023-03-16T09:44:17.452Z,81.37
2023-03-16T09:45:52.944Z,81.24
2023-03-16T09:46:56.311Z,81.07
2023-03-16T09:47:59.195Z,81.20
2023-03-16T09:49:34.668Z,80.07
2023-03-16T09:50:54.104Z,80.48
2023-03-16T09:51:59.685Z,80.52
2023-03-16T09:53:35.968Z,80.17
2023-03-16T09:54:39.203Z,80.22
2023-03-16T09:55:42.675Z,79.84
2023-03-16T09:57:17.877Z,79.89
2023-03-16T09:58:21.509Z,80.25
2023-03-16T09:59:24.544Z,80.02
2023-03-16T10:00:18.341Z,79.67
2023-03-16T10:01:22.727Z,80.23
2023-03-16T10:02:25.838Z,80.15
2023-03-16T10:04:01.518Z,79.78
2023-03-16T10:05:04.719Z,79.47
2023-03-16T10:06:08.202Z,79.36
2023-03-16T10:07:43.452Z,79.72
2023-03-16T10:08:46.606Z,79.36
2023-03-16T10:09:50.167Z,79.23
2023-03-16T10:11:25.541Z,79.42
2023-03-16T10:12:28.755Z,79.23
2023-03-16T10:13:32.047Z,79.26
2023-03-16T10:15:07.605Z,79.22
2023-03-16T10:16:11.293Z,79.10
2023-03-16T10:17:15.039Z,78.97
2023-03-16T10:18:53.002Z,79.50
2023-03-16T10:19:56.211Z,79.30
2023-03-16T10:20:59.195Z,79.24
2023-03-16T10:22:34.583Z,79.16
2023-03-16T10:23:40.222Z,79.17
2023-03-16T10:24:44.177Z,78.64
2023-03-16T10:26:19.221Z,78.90
2023-03-16T10:27:22.454Z,78.90
2023-03-16T10:28:25.887Z,78.90
2023-03-16T10:30:01.129Z,79.22
2023-03-16T10:31:04.183Z,79.29
2023-03-16T10:32:08.020Z,78.85
2023-03-16T10:33:43.940Z,78.74
2023-03-16T10:34:47.214Z,78.90
2023-03-16T10:35:50.385Z,78.63
2023-03-16T10:37:26.458Z,78.72
2023-03-16T10:38:29.742Z,79.15
2023-03-16T10:39:34.912Z,78.19
2023-03-16T10:41:11.078Z,78.13
2023-03-16T10:42:15.393Z,77.76
2023-03-16T10:43:18.706Z,77.81
2023-03-16T10:44:54.398Z,77.94
2023-03-16T10:46:00.821Z,77.42
2023-03-16T10:47:07.445Z,77.59
2023-03-16T10:48:43.256Z,77.73
2023-03-16T10:49:46.818Z,77.55
2023-03-16T10:50:49.899Z,77.63
2023-03-16T10:52:25.277Z,77.84
2023-03-16T10:53:28.671Z,78.04
2023-03-16T10:54:31.982Z,78.11
2023-03-16T10:56:07.536Z,76.94
2023-03-16T10:57:10.762Z,77.08
2023-03-16T10:58:14.129Z,77.45
2023-03-16T10:59:49.760Z,77.75
2023-03-16T11:00:18.014Z,76.87
2023-03-16T11:01:21.607Z,76.59
2023-03-16T11:02:25.372Z,77.09
2023-03-16T11:04:00.485Z,77.05
2023-03-16T11:05:04.074Z,77.31
2023-03-16T11:06:07.875Z,76.92
2023-03-16T11:07:43.176Z,76.57
2023-03-16T11:08:46.123Z,76.60
2023-03-16T11:09:50.630Z,76.11
2023-03-16T11:11:42.210Z,75.32
2023-03-16T11:12:45.286Z,75.71
2023-03-16T11:13:53.611Z,75.10
2023-03-16T11:15:35.192Z,74.00
2023-03-16T11:16:38.284Z,73.65
2023-03-16T11:17:41.835Z,73.36
2023-03-16T11:19:16.908Z,73.86
2023-03-16T11:20:19.994Z,73.01
2023-03-16T11:21:22.907Z,73.06
2023-03-16T11:22:57.787Z,72.71
2023-03-16T11:24:00.896Z,72.48
2023-03-16T11:25:03.893Z,71.65
2023-03-16T11:26:39.578Z,72.41
2023-03-16T11:27:42.490Z,72.24
2023-03-16T11:28:45.512Z,72.16
2023-03-16T11:30:20.334Z,71.97
2023-03-16T11:31:23.333Z,71.55
2023-03-16T11:32:26.850Z,70.86
2023-03-16T11:34:02.360Z,70.89
2023-03-16T11:35:05.437Z,70.68
2023-03-16T11:36:08.958Z,71.14
2023-03-16T11:37:44.281Z,70.79
2023-03-16T11:38:47.202Z,70.68
2023-03-16T11:39:52.003Z,71.79
2023-03-16T11:41:26.964Z,70.76
2023-03-16T11:42:29.913Z,70.53
2023-03-16T11:43:32.974Z,70.49
2023-03-16T11:45:07.759Z,70.10
2023-03-16T11:46:11.584Z,69.98
2023-03-16T11:47:15.220Z,69.84
2023-03-16T11:48:50.126Z,69.72
2023-03-16T11:49:53.178Z,69.77
2023-03-16T11:50:56.002Z,69.26
2023-03-16T11:52:33.683Z,70.54
2023-03-16T11:53:37.950Z,70.19
2023-03-16T11:54:40.880Z,70.20
2023-03-16T11:56:16.609Z,70.26
2023-03-16T11:57:19.507Z,69.52
2023-03-16T11:58:22.492Z,69.35
2023-03-16T12:00:17.596Z,69.83
2023-03-16T12:01:21.013Z,69.04
2023-03-16T12:02:42.010Z,69.43
2023-03-16T12:04:18.344Z,69.74
2023-03-16T12:05:21.704Z,69.97
2023-03-16T12:06:29.452Z,70.30
2023-03-16T12:08:04.358Z,69.75
2023-03-16T12:09:07.268Z,70.55
2023-03-16T12:10:10.354Z,70.56
2023-03-16T12:11:47.652Z,70.21
2023-03-16T12:12:50.710Z,70.35
2023-03-16T12:13:53.631Z,70.75
2023-03-16T12:15:28.673Z,70.30
2023-03-16T12:16:48.775Z,70.26
2023-03-16T12:17:54.594Z,70.55
2023-03-16T12:19:29.468Z,70.22
2023-03-16T12:20:32.461Z,70.11
2023-03-16T12:21:35.447Z,69.83
2023-03-16T12:23:10.162Z,68.72
2023-03-16T12:24:15.012Z,68.61
2023-03-16T12:25:18.045Z,68.82
2023-03-16T12:26:53.451Z,69.23
2023-03-16T12:27:56.379Z,68.85
2023-03-16T12:28:59.225Z,68.83
2023-03-16T12:30:34.374Z,68.78
2023-03-16T12:31:37.664Z,68.86
2023-03-16T12:32:41.047Z,69.05
2023-03-16T12:34:16.217Z,69.01
2023-03-16T12:35:19.199Z,69.24
2023-03-16T12:36:22.767Z,68.94
2023-03-16T12:37:57.669Z,68.37
2023-03-16T12:39:00.481Z,68.58
2023-03-16T12:40:03.484Z,68.96
2023-03-16T12:41:38.220Z,68.55
2023-03-16T12:42:41.214Z,68.42
2023-03-16T12:43:44.425Z,68.62
2023-03-16T12:45:19.857Z,67.61
2023-03-16T12:46:23.702Z,67.30
2023-03-16T12:47:28.464Z,67.59
2023-03-16T12:49:03.167Z,67.88
2023-03-16T12:50:06.221Z,67.48
2023-03-16T12:51:09.512Z,67.80
2023-03-16T12:52:44.582Z,67.92
2023-03-16T12:53:47.429Z,67.48
2023-03-16T12:54:50.481Z,67.11
2023-03-16T12:56:25.135Z,66.50
2023-03-16T12:57:27.957Z,66.51
2023-03-16T12:58:30.788Z,67.37
2023-03-16T13:00:18.341Z,67.03
2023-03-16T13:01:22.142Z,66.49
2023-03-16T13:02:25.550Z,65.79
2023-03-16T13:04:00.443Z,64.80
2023-03-16T13:05:03.751Z,64.66
2023-03-16T13:06:06.780Z,64.27
2023-03-16T13:07:41.706Z,63.25
2023-03-16T13:08:44.618Z,63.96
2023-03-16T13:09:47.536Z,63.72
2023-03-16T13:11:22.709Z,63.04
2023-03-16T13:12:25.580Z,63.13
2023-03-16T13:13:28.396Z,62.57
2023-03-16T13:15:02.946Z,63.38
2023-03-16T13:16:05.848Z,64.20
2023-03-16T13:17:09.409Z,64.04
2023-03-16T13:18:44.794Z,62.52
2023-03-16T13:19:47.621Z,61.94
2023-03-16T13:20:52.336Z,62.12
2023-03-16T13:22:27.665Z,61.68
2023-03-16T13:23:30.601Z,62.20
2023-03-16T13:24:35.924Z,62.16
2023-03-16T13:26:10.759Z,62.01
2023-03-16T13:27:13.692Z,62.03
2023-03-16T13:28:16.922Z,62.28
2023-03-16T13:29:51.722Z,61.57
2023-03-16T13:30:54.976Z,61.16
2023-03-16T13:31:58.325Z,60.88
2023-03-16T13:33:33.672Z,60.82
2023-03-16T13:34:36.547Z,60.97
2023-03-16T13:35:39.705Z,61.24
2023-03-16T13:37:15.429Z,61.86
2023-03-16T13:38:18.449Z,61.84
2023-03-16T13:39:21.796Z,61.12
2023-03-16T13:40:57.135Z,61.28
2023-03-16T13:42:00.109Z,61.45
2023-03-16T13:43:02.880Z,62.03
2023-03-16T13:44:37.424Z,61.61
2023-03-16T13:45:40.346Z,62.08
2023-03-16T13:46:43.478Z,61.35
2023-03-16T13:48:18.220Z,61.00
2023-03-16T13:49:21.088Z,61.49
2023-03-16T13:50:24.032Z,62.11
2023-03-16T13:51:59.481Z,61.59
2023-03-16T13:53:04.315Z,62.38
2023-03-16T13:54:07.366Z,61.96
2023-03-16T13:55:42.277Z,61.39
2023-03-16T13:56:45.358Z,61.36
2023-03-16T13:57:48.244Z,61.46
2023-03-16T13:59:24.618Z,61.45
2023-03-16T14:00:17.828Z,61.80
2023-03-16T14:01:21.188Z,60.68
2023-03-16T14:02:24.666Z,60.89
2023-03-16T14:04:00.097Z,61.13
2023-03-16T14:05:02.866Z,59.90
2023-03-16T14:06:05.664Z,60.09
2023-03-16T14:07:40.847Z,60.43
2023-03-16T14:08:43.728Z,60.45
2023-03-16T14:09:46.715Z,60.28
2023-03-16T14:11:21.622Z,60.65
2023-03-16T14:12:24.500Z,60.60
2023-03-16T14:13:27.377Z,60.62
2023-03-16T14:15:02.282Z,60.78
2023-03-16T14:16:05.209Z,59.93
2023-03-16T14:17:08.654Z,59.98
2023-03-16T14:18:43.740Z,60.06
2023-03-16T14:19:46.558Z,60.30
2023-03-16T14:20:49.537Z,61.03
2023-03-16T14:22:24.157Z,60.03
2023-03-16T14:23:27.079Z,60.01
2023-03-16T14:24:30.226Z,59.77
2023-03-16T14:26:05.162Z,59.91
2023-03-16T14:27:08.024Z,60.67
2023-03-16T14:28:10.911Z,61.15
2023-03-16T14:29:45.868Z,60.95
2023-03-16T14:30:49.114Z,60.61
2023-03-16T14:31:52.483Z,60.51
2023-03-16T14:33:27.617Z,60.16
2023-03-16T14:34:30.535Z,61.17
2023-03-16T14:35:33.900Z,60.53
2023-03-16T14:37:11.831Z,59.95
2023-03-16T14:38:14.593Z,60.13
2023-03-16T14:39:17.677Z,59.89
2023-03-16T14:40:52.611Z,60.25
2023-03-16T14:41:55.492Z,60.24
2023-03-16T14:42:58.419Z,60.44
2023-03-16T14:44:33.345Z,61.44
2023-03-16T14:45:37.161Z,61.73
2023-03-16T14:46:40.644Z,61.12
2023-03-16T14:48:15.465Z,60.85
2023-03-16T14:49:18.244Z,60.95
2023-03-16T14:50:23.887Z,60.28
2023-03-16T14:51:58.732Z,60.39
2023-03-16T14:53:01.819Z,60.18
2023-03-16T14:54:04.750Z,60.22
2023-03-16T14:55:39.541Z,60.30
2023-03-16T14:56:42.491Z,60.03
2023-03-16T14:57:45.469Z,60.13
2023-03-16T14:59:20.515Z,60.08
2023-03-16T15:00:17.553Z,60.56
2023-03-16T15:01:38.678Z,60.71
2023-03-16T15:02:42.165Z,59.86
2023-03-16T15:04:17.543Z,59.74
2023-03-16T15:05:20.634Z,59.89
2023-03-16T15:06:23.870Z,59.59
2023-03-16T15:08:00.417Z,60.24
2023-03-16T15:09:03.227Z,60.32
2023-03-16T15:10:06.064Z,60.51
2023-03-16T15:11:41.290Z,60.58
2023-03-16T15:12:44.161Z,61.09
2023-03-16T15:13:47.188Z,60.60
2023-03-16T15:15:22.623Z,61.10
2023-03-16T15:16:26.109Z,61.03
2023-03-16T15:17:29.240Z,61.15
2023-03-16T15:19:04.067Z,60.46
2023-03-16T15:20:07.245Z,61.13
2023-03-16T15:21:11.147Z,61.21
2023-03-16T15:22:46.766Z,60.16
2023-03-16T15:23:49.675Z,60.42
2023-03-16T15:24:52.516Z,60.11
2023-03-16T15:26:30.626Z,61.16
2023-03-16T15:27:33.397Z,60.95
2023-03-16T15:28:36.624Z,60.47
2023-03-16T15:30:11.527Z,60.81
2023-03-16T15:31:15.034Z,61.05
2023-03-16T15:32:18.259Z,61.22
2023-03-16T15:33:53.772Z,61.28
2023-03-16T15:34:56.746Z,61.49
2023-03-16T15:36:00.069Z,61.44
2023-03-16T15:37:37.301Z,61.55
2023-03-16T15:38:40.546Z,61.46
2023-03-16T15:39:43.786Z,61.97
2023-03-16T15:41:19.205Z,61.72
2023-03-16T15:42:38.663Z,61.52
2023-03-16T15:43:44.089Z,61.82
2023-03-16T15:45:19.354Z,61.92
2023-03-16T15:46:22.562Z,61.48
2023-03-16T15:47:25.708Z,62.00
2023-03-16T15:49:02.884Z,62.32
2023-03-16T15:50:08.813Z,62.19
2023-03-16T15:51:12.076Z,62.61
2023-03-16T15:52:47.203Z,62.28